createdAt,value
2022-12-24T00:00:29.558Z,98.46
2022-12-24T00:05:32.425Z,96.52
2022-12-24T00:10:35.265Z,94.73
2022-12-24T00:15:39.348Z,95.09
2022-12-24T00:20:42.209Z,95.39
2022-12-24T00:25:45.542Z,96.22
2022-12-24T00:30:49.811Z,94.14
2022-12-24T00:35:53.610Z,93.39
2022-12-24T00:40:59.897Z,93.08
2022-12-24T00:46:04.117Z,96.02
2022-12-24T00:51:07.016Z,95.08
2022-12-24T00:56:10.338Z,94.87
2022-12-24T01:01:14.638Z,96.32
2022-12-24T01:06:19.789Z,95.92
2022-12-24T01:11:22.576Z,93.73
2022-12-24T01:16:26.740Z,94.26
2022-12-24T01:21:29.642Z,94.13
2022-12-24T01:26:32.403Z,94.44
2022-12-24T01:31:36.701Z,94.22
2022-12-24T01:36:39.508Z,94.59
2022-12-24T01:42:00.016Z,94.56
2022-12-24T01:47:09.831Z,94.53
2022-12-24T01:52:16.083Z,94.58
2022-12-24T01:57:23.705Z,94.56
2022-12-24T02:02:28.854Z,93.78
2022-12-24T02:07:32.658Z,92.90
2022-12-24T02:12:38.268Z,93.22
2022-12-24T02:17:51.161Z,92.65
2022-12-24T02:23:12.105Z,91.15
2022-12-24T02:28:30.813Z,90.67
2022-12-24T02:33:39.514Z,90.37
2022-12-24T02:38:48.361Z,90.46
2022-12-24T02:43:53.443Z,91.71
2022-12-24T02:49:00.314Z,91.12
2022-12-24T02:54:03.170Z,92.76
2022-12-24T02:59:35.878Z,90.81
2022-12-24T03:04:48.023Z,91.16
2022-12-24T03:10:08.757Z,90.36
2022-12-24T03:15:14.438Z,89.11
2022-12-24T03:20:21.878Z,89.03
2022-12-24T03:25:26.306Z,87.81
2022-12-24T03:30:29.472Z,87.75
2022-12-24T03:35:33.710Z,89.11
2022-12-24T03:40:36.450Z,88.72
2022-12-24T03:45:39.607Z,88.08
2022-12-24T03:50:43.866Z,88.27
2022-12-24T03:55:48.499Z,87.51
2022-12-24T04:00:51.353Z,86.98
2022-12-24T04:06:03.425Z,86.42
2022-12-24T04:11:09.949Z,85.66
2022-12-24T04:16:15.576Z,85.79
2022-12-24T04:21:19.720Z,85.21
2022-12-24T04:26:22.516Z,85.20
2022-12-24T04:31:25.356Z,85.00
2022-12-24T04:36:29.516Z,85.22
2022-12-24T04:41:32.936Z,85.64
2022-12-24T04:46:35.784Z,85.59
2022-12-24T04:51:39.870Z,85.56
2022-12-24T04:56:42.636Z,85.78
2022-12-24T05:01:45.590Z,85.46
2022-12-24T05:06:49.819Z,84.05
2022-12-24T05:11:52.687Z,82.57
2022-12-24T05:16:55.753Z,83.62
2022-12-24T05:22:17.496Z,83.19
2022-12-24T05:27:20.362Z,83.49
2022-12-24T05:32:23.215Z,82.21
2022-12-24T05:37:27.385Z,82.25
2022-12-24T05:42:30.126Z,80.89
2022-12-24T05:47:35.678Z,81.75
2022-12-24T05:52:43.872Z,82.06
2022-12-24T05:57:46.715Z,81.15
2022-12-24T06:02:49.531Z,82.87
2022-12-24T06:07:53.745Z,84.53
2022-12-24T06:12:56.868Z,83.14
2022-12-24T06:17:59.635Z,82.50
2022-12-24T06:23:03.790Z,82.59
2022-12-24T06:28:06.574Z,82.91
2022-12-24T06:33:09.567Z,83.21
2022-12-24T06:38:13.742Z,83.19
2022-12-24T06:43:17.296Z,83.38
2022-12-24T06:48:20.073Z,83.56
2022-12-24T06:53:24.232Z,82.67
2022-12-24T06:58:26.964Z,84.48
2022-12-24T07:03:29.953Z,83.32
2022-12-24T07:08:36.226Z,85.21
2022-12-24T07:13:39.336Z,85.50
2022-12-24T07:18:42.382Z,85.88
2022-12-24T07:23:46.872Z,85.88
2022-12-24T07:28:49.892Z,88.15
2022-12-24T07:33:52.969Z,89.00
2022-12-24T07:38:57.466Z,87.54
2022-12-24T07:44:00.719Z,87.82
2022-12-24T07:49:03.838Z,90.93
2022-12-24T07:54:08.329Z,90.09
2022-12-24T07:59:13.609Z,91.48
2022-12-24T08:04:16.789Z,90.53
2022-12-24T08:09:21.392Z,90.43
2022-12-24T08:14:24.553Z,90.01
2022-12-24T08:19:27.374Z,89.66
2022-12-24T08:24:31.600Z,90.30
2022-12-24T08:29:34.792Z,91.87
2022-12-24T08:34:37.990Z,92.60
2022-12-24T08:39:42.212Z,92.59
2022-12-24T08:44:49.641Z,92.16
2022-12-24T08:49:53.954Z,94.36
2022-12-24T08:55:00.357Z,95.95
2022-12-24T09:00:04.595Z,94.03
2022-12-24T09:05:08.528Z,95.13
2022-12-24T09:10:13.570Z,94.98
2022-12-24T09:15:21.788Z,94.92
2022-12-24T09:20:30.869Z,96.36
2022-12-24T09:25:36.690Z,95.57
2022-12-24T09:30:39.482Z,96.85
2022-12-24T09:35:42.289Z,98.20
2022-12-24T09:40:50.144Z,99.63
2022-12-24T09:46:11.387Z,98.21
2022-12-24T09:51:22.668Z,98.56
2022-12-24T09:56:29.214Z,98.33
2022-12-24T10:01:34.620Z,99.37
2022-12-24T10:06:48.876Z,98.01
2022-12-24T10:12:03.726Z,97.97
2022-12-24T10:17:23.536Z,97.76
2022-12-24T10:22:35.780Z,97.64
2022-12-24T10:27:41.414Z,97.58
2022-12-24T10:32:44.489Z,95.31
2022-12-24T10:37:49.578Z,94.61
2022-12-24T10:42:53.757Z,93.66
2022-12-24T10:48:03.377Z,93.60
2022-12-24T10:53:15.288Z,92.41
2022-12-24T10:58:22.415Z,90.83
2022-12-24T11:03:32.949Z,90.34
2022-12-24T11:08:37.125Z,89.56
2022-12-24T11:13:44.798Z,88.47
2022-12-24T11:18:51.886Z,89.26
2022-12-24T11:23:57.564Z,88.19
2022-12-24T11:29:17.904Z,87.82
2022-12-24T11:34:27.256Z,86.61
2022-12-24T11:39:30.028Z,85.56
2022-12-24T11:44:34.298Z,84.87
2022-12-24T11:49:37.036Z,79.46
2022-12-24T11:54:46.284Z,78.77
2022-12-24T11:59:52.204Z,78.21
2022-12-24T12:04:59.973Z,77.67
2022-12-24T12:10:07.124Z,76.12
2022-12-24T12:15:17.680Z,79.04
2022-12-24T12:20:24.971Z,78.87
2022-12-24T12:25:33.751Z,78.92
2022-12-24T12:30:40.509Z,79.56
2022-12-24T12:35:45.751Z,80.52
2022-12-24T12:41:02.883Z,80.80
2022-12-24T12:46:19.404Z,80.54
2022-12-24T12:51:29.380Z,81.58
2022-12-24T12:56:35.519Z,79.78
2022-12-24T13:01:48.146Z,80.06
2022-12-24T13:07:06.517Z,79.97
2022-12-24T13:12:30.725Z,79.33
2022-12-24T13:17:55.459Z,79.15
2022-12-24T13:23:00.786Z,78.48
2022-12-24T13:28:17.398Z,78.77
2022-12-24T13:33:48.629Z,79.09
2022-12-24T13:38:53.536Z,78.48
2022-12-24T13:44:03.556Z,78.72
2022-12-24T13:49:19.014Z,77.36
2022-12-24T13:54:32.947Z,76.01
2022-12-24T13:59:39.315Z,77.66
2022-12-24T14:04:43.518Z,77.81
2022-12-24T14:09:51.367Z,78.24
2022-12-24T14:14:54.126Z,79.07
2022-12-24T14:20:00.613Z,78.84
2022-12-24T14:25:08.128Z,77.21
2022-12-24T14:30:21.054Z,77.01
2022-12-24T14:35:28.669Z,77.21
2022-12-24T14:40:34.192Z,77.58
2022-12-24T14:45:43.039Z,77.18
2022-12-24T14:51:03.992Z,78.41
2022-12-24T14:56:15.418Z,78.06
2022-12-24T15:01:24.888Z,78.78
2022-12-24T15:06:30.070Z,79.01
2022-12-24T15:11:33.208Z,78.56
2022-12-24T15:16:37.529Z,78.54
2022-12-24T15:21:44.247Z,78.93
2022-12-24T15:26:47.110Z,78.77
2022-12-24T15:31:55.061Z,78.99
2022-12-24T15:37:11.924Z,78.63
2022-12-24T15:42:19.975Z,78.33
2022-12-24T15:47:28.329Z,80.19
2022-12-24T15:52:33.067Z,79.85
2022-12-24T15:57:36.465Z,79.29
2022-12-24T16:02:41.443Z,79.77
2022-12-24T16:08:10.299Z,79.39
2022-12-24T16:13:17.248Z,79.37
2022-12-24T16:18:25.155Z,79.42
2022-12-24T16:23:38.032Z,80.48
2022-12-24T16:28:40.796Z,80.32
2022-12-24T16:33:44.370Z,79.51
2022-12-24T16:39:05.989Z,79.57
2022-12-24T16:44:08.683Z,80.05
2022-12-24T16:49:16.367Z,79.95
2022-12-24T16:54:20.419Z,79.99
2022-12-24T16:59:25.288Z,79.61
2022-12-24T17:04:27.990Z,79.87
2022-12-24T17:09:31.910Z,79.09
2022-12-24T17:14:34.880Z,79.90
2022-12-24T17:19:37.684Z,79.77
2022-12-24T17:24:42.069Z,79.50
2022-12-24T17:29:44.926Z,79.32
2022-12-24T17:34:47.762Z,79.04
2022-12-24T17:39:51.882Z,79.52
2022-12-24T17:44:54.712Z,79.09
2022-12-24T17:49:57.475Z,79.03
2022-12-24T17:55:01.646Z,78.83
2022-12-24T18:00:05.214Z,78.71
2022-12-24T18:05:08.793Z,78.37
2022-12-24T18:10:13.133Z,78.61
2022-12-24T18:15:19.749Z,78.50
2022-12-24T18:20:23.098Z,78.75
2022-12-24T18:25:27.273Z,78.56
2022-12-24T18:30:30.066Z,79.14
2022-12-24T18:35:32.807Z,78.94
2022-12-24T18:40:38.835Z,78.62
2022-12-24T18:45:42.029Z,78.23
2022-12-24T18:50:44.789Z,78.05
2022-12-24T18:55:48.905Z,78.29
2022-12-24T19:00:51.750Z,77.87
2022-12-24T19:05:54.522Z,77.80
2022-12-24T19:10:58.780Z,77.90
2022-12-24T19:16:01.857Z,78.36
2022-12-24T19:21:06.383Z,79.06
2022-12-24T19:26:11.688Z,78.56
2022-12-24T19:31:17.002Z,78.26
2022-12-24T19:36:21.737Z,78.44
2022-12-24T19:41:28.363Z,78.24
2022-12-24T19:46:32.965Z,79.36
2022-12-24T19:51:36.681Z,80.20
2022-12-24T19:56:40.885Z,80.73
2022-12-24T20:01:44.180Z,81.28
2022-12-24T20:06:47.275Z,81.84
2022-12-24T20:11:52.325Z,81.77
2022-12-24T20:16:55.239Z,82.00
2022-12-24T20:21:58.087Z,82.22
2022-12-24T20:27:02.271Z,82.54
2022-12-24T20:32:05.680Z,82.56
2022-12-24T20:37:08.576Z,82.59
2022-12-24T20:42:12.963Z,82.72
2022-12-24T20:47:15.793Z,82.97
2022-12-24T20:52:18.609Z,82.97
2022-12-24T20:57:26.850Z,83.01
2022-12-24T21:02:32.542Z,83.43
2022-12-24T21:07:35.567Z,83.50
2022-12-24T21:12:56.781Z,83.05
2022-12-24T21:18:09.908Z,82.97
2022-12-24T21:23:12.728Z,82.96
2022-12-24T21:28:17.640Z,83.04
2022-12-24T21:33:20.456Z,82.60
2022-12-24T21:38:23.234Z,82.59
2022-12-24T21:43:27.529Z,82.71
2022-12-24T21:48:47.975Z,82.83
2022-12-24T21:54:08.266Z,83.02
2022-12-24T21:59:12.398Z,82.86
2022-12-24T22:04:16.611Z,82.59
2022-12-24T22:09:45.550Z,82.25
2022-12-24T22:14:50.138Z,82.30
2022-12-24T22:19:52.946Z,82.48
2022-12-24T22:24:55.732Z,82.42
2022-12-24T22:29:59.961Z,82.28
2022-12-24T22:35:02.762Z,82.38
2022-12-24T22:40:06.421Z,82.54
2022-12-24T22:45:15.688Z,82.09
2022-12-24T22:50:21.364Z,82.35
2022-12-24T22:55:24.429Z,82.17
2022-12-24T23:00:43.294Z,82.18
2022-12-24T23:05:46.413Z,82.44
2022-12-24T23:10:49.205Z,82.68
2022-12-24T23:15:53.420Z,82.87
2022-12-24T23:20:56.299Z,82.80
2022-12-24T23:26:03.327Z,82.45
2022-12-24T23:31:08.261Z,82.56
2022-12-24T23:36:11.263Z,82.58
2022-12-24T23:41:14.126Z,82.45
2022-12-24T23:46:19.817Z,82.80
2022-12-24T23:51:24.517Z,83.12
2022-12-24T23:56:27.395Z,82.90
